Time;durP1;ratioP1;P1;durP2;ratioP2;P2;SDS_P1;SDS_P2;PMS_P1;PMS_P2;Temp;Humidity;BMP_temperature;BMP_pressure;BME280_temperature;BME280_humidity;BME280_pressure;Samples;Min_cycle;Max_cycle;Signal;HPM_P1;HPM_P2
2022/05/17 00:01:57;;;;;;;1.60;1.40;;;;;;;;;;5076703;28;20202;-81
2022/05/17 00:04:23;;;;;;;1.80;1.42;;;;;;;;;;5078098;28;20195;-81
2022/05/17 00:06:49;;;;;;;2.13;1.60;;;;;;;;;;5073797;28;20188;-81
2022/05/17 00:09:17;;;;;;;2.13;1.98;;;;;;;;;;5069724;28;20263;-80
2022/05/17 00:11:48;;;;;;;1.48;1.35;;;;;;;;;;5068200;28;20173;-81
2022/05/17 00:14:15;;;;;;;1.67;1.33;;;;;;;;;;5066334;28;20181;-80
2022/05/17 00:16:41;;;;;;;1.60;1.35;;;;;;;;;;5080350;28;20209;-80
2022/05/17 00:19:08;;;;;;;2.38;1.90;;;;;;;;;;5078619;28;20176;-80
2022/05/17 00:21:34;;;;;;;1.85;1.63;;;;;;;;;;5064176;28;20169;-80
2022/05/17 00:24:00;;;;;;;2.37;1.70;;;;;;;;;;5072578;28;20614;-81
2022/05/17 00:26:26;;;;;;;2.03;1.60;;;;;;;;;;5076803;28;20439;-80
2022/05/17 00:28:52;;;;;;;3.60;1.70;;;;;;;;;;5080289;28;20573;-81
2022/05/17 00:31:18;;;;;;;1.60;1.50;;;;;;;;;;5065937;28;20419;-80
2022/05/17 00:33:45;;;;;;;1.80;1.40;;;;;;;;;;5080122;28;20431;-81
2022/05/17 00:36:11;;;;;;;2.03;1.60;;;;;;;;;;5083696;28;20706;-80
2022/05/17 00:38:37;;;;;;;2.20;1.60;;;;;;;;;;5076814;28;20197;-80
2022/05/17 00:41:03;;;;;;;1.63;1.50;;;;;;;;;;5078065;28;20432;-81
2022/05/17 00:44:42;;;;;;;2.65;1.70;;;;;;;;;;5080085;28;20431;-81
2022/05/17 00:46:20;;;;;;;2.05;1.42;;;;;;;;;;5079721;28;20176;-80
2022/05/17 00:48:47;;;;;;;2.30;1.55;;;;;;;;;;5064021;28;20666;-82
2022/05/17 00:51:13;;;;;;;2.55;1.90;;;;;;;;;;5067987;28;20182;-81
2022/05/17 00:53:39;;;;;;;3.30;1.85;;;;;;;;;;5074269;28;20184;-81
2022/05/17 00:56:10;;;;;;;3.57;1.53;;;;;;;;;;5076726;28;20212;-80
2022/05/17 00:58:56;;;;;;;3.90;1.50;;;;;;;;;;5063953;28;20463;-80
2022/05/17 01:01:24;;;;;;;2.17;1.90;;;;;;;;;;5078415;28;20169;-80
2022/05/17 01:03:54;;;;;;;2.25;1.40;;;;;;;;;;5063033;28;20201;-81
2022/05/17 01:06:22;;;;;;;2.45;2.22;;;;;;;;;;5068087;28;20199;-81
2022/05/17 01:08:48;;;;;;;2.20;1.92;;;;;;;;;;5070066;28;20200;-81
2022/05/17 01:11:14;;;;;;;1.60;1.40;;;;;;;;;;5079329;28;20196;-80
2022/05/17 01:16:25;;;;;;;3.80;2.45;;;;;;;;;;5079900;28;20234;-81
2022/05/17 01:18:52;;;;;;;3.47;2.30;;;;;;;;;;5082832;28;20259;-80
2022/05/17 01:21:18;;;;;;;2.53;2.30;;;;;;;;;;5073681;28;20177;-81
2022/05/17 01:23:44;;;;;;;4.30;2.10;;;;;;;;;;5072041;28;20603;-81
2022/05/17 01:26:13;;;;;;;2.65;2.00;;;;;;;;;;5073640;28;20657;-81
2022/05/17 01:28:39;;;;;;;3.03;2.50;;;;;;;;;;5067281;28;20205;-81
2022/05/17 01:31:06;;;;;;;3.60;2.53;;;;;;;;;;5070534;28;20208;-83
2022/05/17 01:33:33;;;;;;;4.93;1.92;;;;;;;;;;5075657;28;20189;-84
2022/05/17 01:36:00;;;;;;;2.75;1.80;;;;;;;;;;5075944;28;20240;-81
2022/05/17 01:38:27;;;;;;;2.58;1.83;;;;;;;;;;5071225;28;20194;-81
2022/05/17 01:40:53;;;;;;;2.65;1.73;;;;;;;;;;5069528;28;20186;-83
2022/05/17 01:43:19;;;;;;;4.57;2.30;;;;;;;;;;5073755;28;20178;-81
2022/05/17 01:45:45;;;;;;;2.45;1.80;;;;;;;;;;5069781;28;20495;-82
2022/05/17 01:48:11;;;;;;;5.33;2.20;;;;;;;;;;5070911;28;20193;-80
2022/05/17 01:50:37;;;;;;;4.35;2.10;;;;;;;;;;5075565;28;20446;-84
2022/05/17 01:53:04;;;;;;;3.20;1.52;;;;;;;;;;5068208;28;20185;-82
2022/05/17 01:55:30;;;;;;;2.22;2.08;;;;;;;;;;5082460;28;20205;-82
2022/05/17 01:57:56;;;;;;;7.78;3.00;;;;;;;;;;5081318;28;20169;-82
2022/05/17 02:00:25;;;;;;;2.23;2.03;;;;;;;;;;5083922;28;20223;-81
2022/05/17 02:02:51;;;;;;;2.72;1.80;;;;;;;;;;5075457;28;20444;-82
2022/05/17 02:05:18;;;;;;;2.13;2.03;;;;;;;;;;5068798;28;20650;-82
2022/05/17 02:07:45;;;;;;;3.70;2.08;;;;;;;;;;5082498;28;20406;-82
2022/05/17 02:10:11;;;;;;;2.85;1.73;;;;;;;;;;5081498;28;20614;-80
2022/05/17 02:12:37;;;;;;;5.10;2.15;;;;;;;;;;5072318;28;20194;-81
2022/05/17 02:15:05;;;;;;;3.27;1.57;;;;;;;;;;5069113;28;20282;-82
2022/05/17 02:17:31;;;;;;;2.13;1.73;;;;;;;;;;5069867;28;21193;-82
2022/05/17 02:19:57;;;;;;;2.53;2.28;;;;;;;;;;5068072;28;20263;-81
2022/05/17 02:22:23;;;;;;;1.80;1.70;;;;;;;;;;5080094;28;20177;-80
2022/05/17 02:24:49;;;;;;;3.10;2.43;;;;;;;;;;5070564;28;20182;-81
2022/05/17 02:27:15;;;;;;;2.63;2.35;;;;;;;;;;5074571;28;20439;-81
2022/05/17 02:29:41;;;;;;;1.95;1.75;;;;;;;;;;5071468;28;20182;-82
2022/05/17 02:32:07;;;;;;;5.77;2.70;;;;;;;;;;5081729;28;20215;-82
2022/05/17 02:34:36;;;;;;;2.22;1.90;;;;;;;;;;5078515;28;20508;-81
2022/05/17 02:37:02;;;;;;;3.42;2.30;;;;;;;;;;5071634;28;20638;-81
2022/05/17 02:39:28;;;;;;;3.33;1.98;;;;;;;;;;5077737;28;20555;-82
2022/05/17 02:41:54;;;;;;;1.80;1.70;;;;;;;;;;5079008;28;20232;-81
2022/05/17 02:44:20;;;;;;;2.57;2.37;;;;;;;;;;5080018;28;20435;-81
2022/05/17 02:46:46;;;;;;;2.60;1.97;;;;;;;;;;5077754;28;20442;-81
2022/05/17 02:49:12;;;;;;;4.47;2.47;;;;;;;;;;5079767;28;20962;-80
2022/05/17 02:51:38;;;;;;;3.50;1.85;;;;;;;;;;5071480;28;20451;-81
2022/05/17 02:54:06;;;;;;;2.15;1.80;;;;;;;;;;5069398;28;20185;-82
2022/05/17 02:56:33;;;;;;;2.40;2.20;;;;;;;;;;5071260;28;20251;-82
2022/05/17 02:58:59;;;;;;;2.72;1.50;;;;;;;;;;5067876;28;20195;-83
2022/05/17 03:01:26;;;;;;;2.35;1.70;;;;;;;;;;5089197;28;20175;-82
2022/05/17 03:03:51;;;;;;;2.50;2.30;;;;;;;;;;5078355;28;20169;-82
2022/05/17 03:06:17;;;;;;;2.67;2.13;;;;;;;;;;5071686;28;20192;-82
2022/05/17 03:08:43;;;;;;;2.60;2.23;;;;;;;;;;5071380;28;20452;-83
2022/05/17 03:11:09;;;;;;;2.63;2.20;;;;;;;;;;5078852;28;20809;-83
2022/05/17 03:13:36;;;;;;;2.80;2.58;;;;;;;;;;5063702;28;20468;-82
2022/05/17 03:16:02;;;;;;;3.53;2.17;;;;;;;;;;5079502;28;20196;-82
2022/05/17 03:18:28;;;;;;;3.38;1.90;;;;;;;;;;5069472;28;20216;-81
2022/05/17 03:20:54;;;;;;;2.10;1.97;;;;;;;;;;5069789;28;20211;-82
2022/05/17 03:23:20;;;;;;;3.00;1.70;;;;;;;;;;5065951;28;20444;-81
2022/05/17 03:25:46;;;;;;;4.73;2.10;;;;;;;;;;5064596;28;20424;-81
2022/05/17 03:28:13;;;;;;;3.95;2.20;;;;;;;;;;5068454;28;20419;-80
2022/05/17 03:30:42;;;;;;;2.97;2.67;;;;;;;;;;5069333;28;20254;-80
2022/05/17 03:33:09;;;;;;;4.72;2.28;;;;;;;;;;5068426;28;20207;-81
2022/05/17 03:35:35;;;;;;;3.00;2.17;;;;;;;;;;5075219;28;20221;-81
2022/05/17 03:38:01;;;;;;;2.95;2.00;;;;;;;;;;5066841;28;20213;-80
2022/05/17 03:40:27;;;;;;;2.15;1.83;;;;;;;;;;5080143;28;20183;-81
2022/05/17 03:42:53;;;;;;;6.83;2.83;;;;;;;;;;5081504;28;20231;-81
2022/05/17 03:45:19;;;;;;;2.07;1.90;;;;;;;;;;5081327;28;20434;-81
2022/05/17 03:47:45;;;;;;;3.17;2.17;;;;;;;;;;5075801;28;20440;-81
2022/05/17 03:50:12;;;;;;;3.25;1.85;;;;;;;;;;5065845;28;20431;-81
2022/05/17 03:52:38;;;;;;;2.00;1.85;;;;;;;;;;5080927;28;20181;-80
2022/05/17 03:55:05;;;;;;;3.23;1.80;;;;;;;;;;5080571;28;20241;-81
2022/05/17 03:57:31;;;;;;;2.95;1.90;;;;;;;;;;5071607;28;20438;-82
2022/05/17 03:59:58;;;;;;;2.73;2.00;;;;;;;;;;5073418;28;20487;-82
2022/05/17 04:02:24;;;;;;;7.07;2.38;;;;;;;;;;5072578;28;20533;-83
2022/05/17 04:04:54;;;;;;;2.85;2.05;;;;;;;;;;5065001;28;20189;-82
2022/05/17 04:07:20;;;;;;;2.40;1.70;;;;;;;;;;5066638;28;20177;-82
2022/05/17 04:09:46;;;;;;;2.53;2.17;;;;;;;;;;5068419;28;20184;-83
2022/05/17 04:12:12;;;;;;;2.63;2.35;;;;;;;;;;5068590;28;20256;-82
2022/05/17 04:14:39;;;;;;;3.83;2.22;;;;;;;;;;5074879;28;20623;-83
2022/05/17 04:17:05;;;;;;;3.80;2.85;;;;;;;;;;5065423;28;20254;-82
2022/05/17 04:19:31;;;;;;;2.30;2.13;;;;;;;;;;5079546;28;20176;-83
2022/05/17 04:22:00;;;;;;;4.80;2.17;;;;;;;;;;5073887;28;20538;-83
2022/05/17 04:24:27;;;;;;;2.80;2.60;;;;;;;;;;5073281;28;20435;-82
2022/05/17 04:26:53;;;;;;;3.55;2.08;;;;;;;;;;5068133;28;20238;-81
2022/05/17 04:29:19;;;;;;;4.25;2.15;;;;;;;;;;5066490;28;20196;-81
2022/05/17 04:31:46;;;;;;;3.35;2.58;;;;;;;;;;5080411;28;20583;-81
2022/05/17 04:34:13;;;;;;;4.13;2.10;;;;;;;;;;5065951;28;20176;-81
2022/05/17 04:36:40;;;;;;;2.70;2.45;;;;;;;;;;5069561;28;20227;-82
2022/05/17 04:39:06;;;;;;;2.30;2.10;;;;;;;;;;5068330;28;20211;-83
2022/05/17 04:41:32;;;;;;;4.75;2.75;;;;;;;;;;5068057;28;20184;-83
2022/05/17 04:43:58;;;;;;;3.03;2.30;;;;;;;;;;5078533;28;20245;-81
2022/05/17 04:46:24;;;;;;;2.63;2.20;;;;;;;;;;5079203;28;20433;-82
2022/05/17 04:48:50;;;;;;;4.00;2.13;;;;;;;;;;5067593;28;20427;-83
2022/05/17 04:51:16;;;;;;;2.17;1.87;;;;;;;;;;5072217;28;20180;-83
2022/05/17 04:53:43;;;;;;;2.25;2.05;;;;;;;;;;5081053;28;20552;-83
2022/05/17 04:56:09;;;;;;;4.47;2.90;;;;;;;;;;5071878;28;20208;-81
2022/05/17 04:58:36;;;;;;;4.50;3.40;;;;;;;;;;5077339;28;20201;-83
2022/05/17 05:01:02;;;;;;;8.30;7.40;;;;;;;;;;5080109;28;20185;-83
2022/05/17 05:03:28;;;;;;;7.00;6.07;;;;;;;;;;5081071;28;20180;-83
2022/05/17 05:05:55;;;;;;;4.55;4.15;;;;;;;;;;5080393;28;20184;-80
2022/05/17 05:08:22;;;;;;;5.63;4.95;;;;;;;;;;5092194;28;20192;-83
2022/05/17 05:10:48;;;;;;;6.40;4.07;;;;;;;;;;5068332;28;20239;-82
2022/05/17 05:13:18;;;;;;;4.05;3.08;;;;;;;;;;5079314;28;20180;-83
2022/05/17 05:15:44;;;;;;;3.15;2.95;;;;;;;;;;5084458;28;20562;-83
2022/05/17 05:18:10;;;;;;;2.20;2.00;;;;;;;;;;5080198;28;20184;-82
2022/05/17 05:20:38;;;;;;;4.18;2.10;;;;;;;;;;5084591;28;20530;-82
2022/05/17 05:23:04;;;;;;;2.08;1.98;;;;;;;;;;5085247;28;20168;-82
2022/05/17 05:25:30;;;;;;;2.53;2.27;;;;;;;;;;5068303;28;20211;-81
2022/05/17 05:27:56;;;;;;;4.75;2.30;;;;;;;;;;5084670;28;20414;-82
2022/05/17 05:30:22;;;;;;;4.88;2.47;;;;;;;;;;5075177;28;20219;-81
2022/05/17 05:32:48;;;;;;;6.23;2.73;;;;;;;;;;5077971;28;20184;-81
2022/05/17 05:35:15;;;;;;;4.53;2.72;;;;;;;;;;5080730;28;20976;-83
2022/05/17 05:37:41;;;;;;;2.90;2.55;;;;;;;;;;5083044;28;20194;-81
2022/05/17 05:40:09;;;;;;;4.93;2.67;;;;;;;;;;5077395;28;20232;-82
2022/05/17 05:42:35;;;;;;;3.47;2.38;;;;;;;;;;5080713;28;20202;-82
2022/05/17 05:45:01;;;;;;;2.95;2.40;;;;;;;;;;5076392;28;20184;-83
2022/05/17 05:47:27;;;;;;;2.70;1.98;;;;;;;;;;5071284;28;20222;-82
2022/05/17 05:49:53;;;;;;;4.93;2.45;;;;;;;;;;5079045;28;20185;-81
2022/05/17 05:52:19;;;;;;;2.35;2.08;;;;;;;;;;5075780;28;20180;-82
2022/05/17 05:54:45;;;;;;;2.37;2.07;;;;;;;;;;5079062;28;20181;-82
2022/05/17 05:57:11;;;;;;;4.40;2.20;;;;;;;;;;5076191;28;20820;-82
2022/05/17 05:59:38;;;;;;;3.37;2.03;;;;;;;;;;5078884;28;20459;-83
2022/05/17 06:02:05;;;;;;;4.50;2.22;;;;;;;;;;5079186;28;20454;-82
2022/05/17 06:04:31;;;;;;;2.22;2.00;;;;;;;;;;5081637;28;20222;-83
2022/05/17 06:06:57;;;;;;;3.00;1.90;;;;;;;;;;5070820;28;20173;-83
2022/05/17 06:09:24;;;;;;;2.75;1.90;;;;;;;;;;5072345;28;20817;-81
2022/05/17 06:11:50;;;;;;;3.95;2.75;;;;;;;;;;5073868;28;20184;-83
2022/05/17 06:14:16;;;;;;;5.55;3.70;;;;;;;;;;5082804;28;20184;-83
2022/05/17 06:16:42;;;;;;;3.40;2.63;;;;;;;;;;5069740;28;20957;-82
2022/05/17 06:19:09;;;;;;;4.55;2.67;;;;;;;;;;5069956;28;20181;-82
2022/05/17 06:21:36;;;;;;;4.95;2.60;;;;;;;;;;5080140;28;20199;-82
2022/05/17 06:24:02;;;;;;;3.00;2.35;;;;;;;;;;5074525;28;20173;-82
2022/05/17 06:26:29;;;;;;;2.53;1.90;;;;;;;;;;5072368;28;20226;-81
2022/05/17 06:28:55;;;;;;;5.43;2.35;;;;;;;;;;5068343;28;20183;-81
2022/05/17 06:31:21;;;;;;;4.73;2.33;;;;;;;;;;5073664;28;20209;-80
2022/05/17 06:33:47;;;;;;;1.87;1.77;;;;;;;;;;5080593;28;20426;-81
2022/05/17 06:36:13;;;;;;;4.57;2.05;;;;;;;;;;5072019;28;20475;-80
2022/05/17 06:38:39;;;;;;;2.80;2.10;;;;;;;;;;5073479;28;20209;-80
2022/05/17 06:41:05;;;;;;;3.03;2.53;;;;;;;;;;5091528;28;20435;-80
2022/05/17 06:43:34;;;;;;;3.10;2.22;;;;;;;;;;5067458;28;20434;-80
2022/05/17 06:46:00;;;;;;;4.35;2.28;;;;;;;;;;5083868;28;20176;-80
2022/05/17 06:48:26;;;;;;;4.00;2.20;;;;;;;;;;5073040;28;20621;-80
2022/05/17 06:50:52;;;;;;;6.63;2.43;;;;;;;;;;5072368;28;20186;-80
2022/05/17 06:53:18;;;;;;;7.67;2.80;;;;;;;;;;5070064;28;20451;-80
2022/05/17 06:55:44;;;;;;;4.10;2.40;;;;;;;;;;5078765;28;20469;-80
2022/05/17 06:58:10;;;;;;;4.97;2.15;;;;;;;;;;5078654;28;20182;-79
2022/05/17 07:00:36;;;;;;;5.70;2.65;;;;;;;;;;5081935;28;20213;-80
2022/05/17 07:03:02;;;;;;;4.28;2.50;;;;;;;;;;5078650;28;20214;-79
2022/05/17 07:05:29;;;;;;;2.45;2.15;;;;;;;;;;5077536;28;20262;-80
2022/05/17 07:07:59;;;;;;;2.45;2.10;;;;;;;;;;5071206;28;20670;-78
2022/05/17 07:13:13;;;;;;;4.43;2.08;;;;;;;;;;5065530;28;20222;-79
2022/05/17 07:15:47;;;;;;;3.40;1.80;;;;;;;;;;5073788;28;20200;-78
2022/05/17 07:18:14;;;;;;;3.78;1.83;;;;;;;;;;5080635;28;20191;-79
2022/05/17 07:20:41;;;;;;;4.47;2.08;;;;;;;;;;5076640;28;20242;-78
2022/05/17 07:23:07;;;;;;;2.88;1.75;;;;;;;;;;5079977;28;20187;-78
2022/05/17 07:25:33;;;;;;;8.02;2.30;;;;;;;;;;5074311;28;20237;-78
2022/05/17 07:28:00;;;;;;;2.95;2.03;;;;;;;;;;5078663;28;20652;-78
2022/05/17 07:30:26;;;;;;;3.25;2.15;;;;;;;;;;5076138;28;20188;-78
2022/05/17 07:32:52;;;;;;;3.30;1.80;;;;;;;;;;5069296;28;20231;-78
2022/05/17 07:35:18;;;;;;;4.17;2.07;;;;;;;;;;5071191;28;20252;-78
2022/05/17 07:37:44;;;;;;;1.77;1.67;;;;;;;;;;5081078;28;20525;-78
2022/05/17 07:40:12;;;;;;;2.70;1.60;;;;;;;;;;5077063;28;20423;-78
2022/05/17 07:42:39;;;;;;;3.50;2.20;;;;;;;;;;5076742;28;20420;-78
2022/05/17 07:45:05;;;;;;;2.80;2.27;;;;;;;;;;5079011;28;20453;-79
2022/05/17 07:47:32;;;;;;;1.97;1.20;;;;;;;;;;5081431;28;20438;-78
2022/05/17 07:49:58;;;;;;;2.37;1.83;;;;;;;;;;5072928;28;20438;-78
2022/05/17 07:52:24;;;;;;;2.20;1.50;;;;;;;;;;5072386;28;20518;-78
2022/05/17 07:54:50;;;;;;;1.40;1.30;;;;;;;;;;5079616;28;20493;-79
2022/05/17 07:57:16;;;;;;;3.77;1.63;;;;;;;;;;5080565;28;20954;-79
2022/05/17 07:59:43;;;;;;;2.53;1.50;;;;;;;;;;5077057;28;20485;-78
2022/05/17 08:02:09;;;;;;;1.67;1.50;;;;;;;;;;5088367;28;20455;-78
2022/05/17 08:04:36;;;;;;;3.90;1.60;;;;;;;;;;5077683;28;21074;-78
2022/05/17 08:07:02;;;;;;;2.33;1.70;;;;;;;;;;5082557;28;20465;-77
2022/05/17 08:09:28;;;;;;;3.07;2.00;;;;;;;;;;5077160;28;20469;-78
2022/05/17 08:11:54;;;;;;;3.63;1.77;;;;;;;;;;5084014;28;20446;-78
2022/05/17 08:14:21;;;;;;;6.67;1.93;;;;;;;;;;5076223;28;20514;-78
2022/05/17 08:16:47;;;;;;;2.87;1.53;;;;;;;;;;5079845;28;20450;-78
2022/05/17 08:19:13;;;;;;;1.57;1.40;;;;;;;;;;5077079;28;20975;-78
2022/05/17 08:21:39;;;;;;;2.20;1.43;;;;;;;;;;5074024;28;20756;-78
2022/05/17 08:24:05;;;;;;;2.30;1.27;;;;;;;;;;5080802;28;20412;-80
2022/05/17 08:29:16;;;;;;;2.40;1.53;;;;;;;;;;5076315;28;20495;-78
2022/05/17 08:33:14;;;;;;;3.47;1.57;;;;;;;;;;5077693;28;20432;-78
2022/05/17 08:34:28;;;;;;;2.13;1.50;;;;;;;;;;5068167;28;20434;-78
2022/05/17 08:36:56;;;;;;;2.50;1.50;;;;;;;;;;5082545;28;20474;-78
2022/05/17 08:39:21;;;;;;;2.83;1.77;;;;;;;;;;5077100;28;20921;-78
2022/05/17 08:41:52;;;;;;;2.03;1.73;;;;;;;;;;5077556;28;20429;-78
2022/05/17 08:44:21;;;;;;;3.67;1.47;;;;;;;;;;5077173;28;20465;-78
2022/05/17 08:47:06;;;;;;;1.20;1.10;;;;;;;;;;5064610;28;20436;-77
2022/05/17 08:49:40;;;;;;;2.57;1.60;;;;;;;;;;5064663;28;20432;-79
2022/05/17 08:52:09;;;;;;;1.40;1.30;;;;;;;;;;5075870;28;20476;-78
2022/05/17 08:54:38;;;;;;;1.43;1.20;;;;;;;;;;5077364;28;20419;-77
2022/05/17 08:57:15;;;;;;;2.00;1.57;;;;;;;;;;5073857;28;20474;-77
2022/05/17 08:59:46;;;;;;;2.20;1.30;;;;;;;;;;5075715;28;20443;-77
2022/05/17 09:02:15;;;;;;;2.67;1.50;;;;;;;;;;5080356;28;20455;-77
2022/05/17 09:04:41;;;;;;;3.10;1.10;;;;;;;;;;5079720;28;20442;-78
2022/05/17 09:07:13;;;;;;;1.43;1.30;;;;;;;;;;5080609;28;20429;-76
2022/05/17 09:09:46;;;;;;;2.40;1.17;;;;;;;;;;5080660;28;20438;-80
2022/05/17 09:12:18;;;;;;;4.90;1.23;;;;;;;;;;5072277;28;20444;-78
2022/05/17 09:14:46;;;;;;;6.00;1.70;;;;;;;;;;5073216;28;20414;-76
2022/05/17 09:17:14;;;;;;;2.00;1.53;;;;;;;;;;5078956;28;20411;-77
2022/05/17 09:19:40;;;;;;;4.17;1.77;;;;;;;;;;5079946;28;20511;-79
2022/05/17 09:22:06;;;;;;;1.70;1.27;;;;;;;;;;5075997;28;20959;-80
2022/05/17 09:24:41;;;;;;;10.30;3.87;;;;;;;;;;5070275;28;20405;-79
2022/05/17 09:27:09;;;;;;;1.50;1.30;;;;;;;;;;5067649;28;20408;-79
2022/05/17 09:29:45;;;;;;;2.27;1.33;;;;;;;;;;5071283;28;20455;-78
2022/05/17 09:32:12;;;;;;;1.90;1.40;;;;;;;;;;5074210;28;20508;-78
2022/05/17 09:34:45;;;;;;;3.00;1.87;;;;;;;;;;5073986;28;20460;-78
2022/05/17 09:37:21;;;;;;;4.23;1.50;;;;;;;;;;5073429;28;20404;-79
2022/05/17 09:39:48;;;;;;;4.37;1.77;;;;;;;;;;5070532;28;20424;-77
2022/05/17 09:42:28;;;;;;;4.60;1.90;;;;;;;;;;5071469;28;20416;-78
2022/05/17 09:44:56;;;;;;;4.17;1.60;;;;;;;;;;5075817;28;20401;-78
2022/05/17 09:47:24;;;;;;;3.23;1.33;;;;;;;;;;5080645;28;20445;-78
2022/05/17 09:52:38;;;;;;;2.83;1.60;;;;;;;;;;5083779;28;20442;-78
2022/05/17 09:55:07;;;;;;;3.00;1.20;;;;;;;;;;5080458;28;20464;-79
2022/05/17 09:57:34;;;;;;;1.27;1.17;;;;;;;;;;5072657;28;20982;-77
2022/05/17 10:00:16;;;;;;;2.27;1.20;;;;;;;;;;5066952;28;20432;-76
2022/05/17 10:02:54;;;;;;;1.97;1.30;;;;;;;;;;5070013;28;20429;-80
2022/05/17 10:05:26;;;;;;;1.20;1.10;;;;;;;;;;5070907;28;20440;-79
2022/05/17 10:07:56;;;;;;;2.30;1.43;;;;;;;;;;5076719;28;20432;-78
2022/05/17 10:10:27;;;;;;;2.40;1.27;;;;;;;;;;5068738;28;20512;-78
2022/05/17 10:12:56;;;;;;;2.00;1.50;;;;;;;;;;5082473;28;20434;-79
2022/05/17 10:15:22;;;;;;;1.47;0.90;;;;;;;;;;5072863;28;21010;-78
2022/05/17 10:17:55;;;;;;;1.63;1.30;;;;;;;;;;5070909;28;20440;-80
2022/05/17 10:20:23;;;;;;;1.43;0.80;;;;;;;;;;5074523;28;20545;-78
2022/05/17 10:23:02;;;;;;;1.90;1.10;;;;;;;;;;5081799;28;20529;-79
2022/05/17 10:25:28;;;;;;;1.20;1.10;;;;;;;;;;5076054;28;20923;-78
2022/05/17 10:27:56;;;;;;;1.97;1.07;;;;;;;;;;5078624;28;20451;-78
2022/05/17 10:30:44;;;;;;;1.97;1.20;;;;;;;;;;5072626;28;20679;-77
2022/05/17 10:33:35;;;;;;;1.33;0.80;;;;;;;;;;5074574;28;20527;-77
2022/05/17 10:36:06;;;;;;;2.17;1.13;;;;;;;;;;5085508;28;20475;-77
2022/05/17 10:38:35;;;;;;;2.30;1.47;;;;;;;;;;5073501;28;20451;-79
2022/05/17 10:41:04;;;;;;;1.20;1.10;;;;;;;;;;5082188;28;20464;-79
2022/05/17 10:43:35;;;;;;;1.87;1.70;;;;;;;;;;5066193;28;20474;-78
2022/05/17 10:46:04;;;;;;;2.30;1.50;;;;;;;;;;5079901;28;20456;-78
2022/05/17 10:48:50;;;;;;;5.07;1.17;;;;;;;;;;5068575;28;20510;-78
2022/05/17 10:51:16;;;;;;;2.90;1.10;;;;;;;;;;5069697;28;20450;-78
2022/05/17 10:54:01;;;;;;;4.00;3.57;;;;;;;;;;5073585;28;20442;-78
2022/05/17 10:56:27;;;;;;;5.33;4.00;;;;;;;;;;5079341;28;20849;-79
2022/05/17 10:59:11;;;;;;;1.93;1.77;;;;;;;;;;5066213;28;20443;-78
2022/05/17 11:01:37;;;;;;;1.40;1.13;;;;;;;;;;5078683;28;20498;-78
2022/05/17 11:04:22;;;;;;;2.70;1.90;;;;;;;;;;5080340;28;20424;-87
2022/05/17 11:06:56;;;;;;;2.30;1.40;;;;;;;;;;5081207;28;20420;-78
2022/05/17 11:09:29;;;;;;;3.43;1.70;;;;;;;;;;5082155;28;20443;-79
2022/05/17 11:11:55;;;;;;;2.43;1.70;;;;;;;;;;5074846;28;20514;-78
2022/05/17 11:14:27;;;;;;;2.33;1.60;;;;;;;;;;5068906;28;20483;-79
2022/05/17 11:16:56;;;;;;;3.00;1.73;;;;;;;;;;5065924;28;20468;-79
2022/05/17 11:19:33;;;;;;;2.63;1.63;;;;;;;;;;5069836;28;21243;-76
2022/05/17 11:22:13;;;;;;;3.57;2.47;;;;;;;;;;5071600;28;20419;-79
2022/05/17 11:24:52;;;;;;;3.10;1.63;;;;;;;;;;5079827;28;20419;-77
2022/05/17 11:27:18;;;;;;;4.80;1.67;;;;;;;;;;5075186;28;20920;-78
2022/05/17 11:29:56;;;;;;;6.10;2.03;;;;;;;;;;5069973;28;20503;-78
2022/05/17 11:32:24;;;;;;;2.50;1.93;;;;;;;;;;5072436;28;20521;-78
2022/05/17 11:34:53;;;;;;;2.90;1.67;;;;;;;;;;5081165;28;20467;-78
2022/05/17 11:37:38;;;;;;;4.10;1.77;;;;;;;;;;5079460;28;20427;-79
2022/05/17 11:40:04;;;;;;;2.50;1.30;;;;;;;;;;5075742;28;20786;-77
2022/05/17 11:43:40;;;;;;;3.67;2.93;;;;;;;;;;5079551;28;20433;-79
2022/05/17 11:45:40;;;;;;;2.83;1.47;;;;;;;;;;5069140;28;20422;-78
2022/05/17 11:48:14;;;;;;;3.03;1.60;;;;;;;;;;5068423;28;20757;-81
2022/05/17 11:50:42;;;;;;;3.40;1.80;;;;;;;;;;5070172;28;20444;-78
2022/05/17 11:53:23;;;;;;;2.07;1.60;;;;;;;;;;5067886;28;20795;-78
2022/05/17 11:56:08;;;;;;;5.83;2.40;;;;;;;;;;5075878;28;20465;-80
2022/05/17 11:58:34;;;;;;;2.90;2.30;;;;;;;;;;5071957;28;20876;-78
2022/05/17 12:01:00;;;;;;;2.70;1.60;;;;;;;;;;5071677;28;20426;-78
2022/05/17 12:03:46;;;;;;;2.60;1.63;;;;;;;;;;5077826;28;20697;-77
2022/05/17 12:06:28;;;;;;;4.63;1.77;;;;;;;;;;5074537;28;20435;-77
2022/05/17 12:08:54;;;;;;;3.53;1.60;;;;;;;;;;5073736;28;20446;-77
2022/05/17 12:11:23;;;;;;;2.90;1.90;;;;;;;;;;5074401;28;20446;-78
2022/05/17 12:13:53;;;;;;;2.07;1.80;;;;;;;;;;5090601;28;20436;-79
2022/05/17 12:16:22;;;;;;;2.43;1.83;;;;;;;;;;5069585;28;20477;-78
2022/05/17 12:18:59;;;;;;;1.80;1.70;;;;;;;;;;5079840;28;20505;-79
2022/05/17 12:21:28;;;;;;;3.27;2.30;;;;;;;;;;5066105;28;20439;-79
2022/05/17 12:23:58;;;;;;;3.43;1.70;;;;;;;;;;5069118;28;20435;-79
2022/05/17 12:26:28;;;;;;;2.30;1.70;;;;;;;;;;5080512;28;20445;-79
2022/05/17 12:28:54;;;;;;;2.80;1.80;;;;;;;;;;5065227;28;20443;-79
2022/05/17 12:31:22;;;;;;;3.53;2.40;;;;;;;;;;5071559;28;20414;-81
2022/05/17 12:33:49;;;;;;;2.40;2.20;;;;;;;;;;5079690;28;20427;-78
2022/05/17 12:36:15;;;;;;;4.60;2.23;;;;;;;;;;5070494;28;20479;-80
2022/05/17 12:44:13;;;;;;;1.93;1.83;;;;;;;;;;5076287;28;20469;-80
2022/05/17 12:46:39;;;;;;;3.90;3.50;;;;;;;;;;5076016;28;20435;-79
2022/05/17 12:49:28;;;;;;;2.40;1.73;;;;;;;;;;5081571;28;20790;-80
2022/05/17 12:51:56;;;;;;;3.80;2.80;;;;;;;;;;5075678;28;20419;-79
2022/05/17 12:54:23;;;;;;;2.43;2.23;;;;;;;;;;5073279;28;20434;-82
2022/05/17 12:56:49;;;;;;;6.37;3.10;;;;;;;;;;5074790;28;20478;-80
2022/05/17 12:59:23;;;;;;;3.87;2.33;;;;;;;;;;5076077;28;20443;-82
2022/05/17 13:01:53;;;;;;;2.70;1.97;;;;;;;;;;5079235;28;20434;-81
2022/05/17 13:04:25;;;;;;;4.90;2.60;;;;;;;;;;5075393;28;20527;-81
2022/05/17 13:06:51;;;;;;;2.33;2.10;;;;;;;;;;5077639;28;20493;-81
2022/05/17 13:09:25;;;;;;;2.40;2.10;;;;;;;;;;5075883;28;20442;-81
2022/05/17 13:11:52;;;;;;;4.17;2.30;;;;;;;;;;5081190;28;20426;-82
2022/05/17 13:14:21;;;;;;;4.37;2.27;;;;;;;;;;5083279;28;20468;-83
2022/05/17 13:16:48;;;;;;;2.30;2.10;;;;;;;;;;5076382;28;20494;-81
2022/05/17 13:19:15;;;;;;;4.13;2.93;;;;;;;;;;5074570;28;20431;-82
2022/05/17 13:21:42;;;;;;;3.20;2.40;;;;;;;;;;5081772;28;20416;-81
2022/05/17 13:24:31;;;;;;;4.93;3.60;;;;;;;;;;5080358;28;21146;-81
2022/05/17 13:27:04;;;;;;;2.63;2.40;;;;;;;;;;5075759;28;20514;-80
2022/05/17 13:29:31;;;;;;;4.37;2.70;;;;;;;;;;5072572;28;20454;-81
2022/05/17 13:32:02;;;;;;;3.50;2.20;;;;;;;;;;5069772;28;20427;-81
2022/05/17 13:34:33;;;;;;;2.20;2.00;;;;;;;;;;5082952;28;20434;-81
2022/05/17 13:37:23;;;;;;;2.33;2.03;;;;;;;;;;5084401;28;20498;-81
2022/05/17 13:39:55;;;;;;;2.70;2.43;;;;;;;;;;5077141;28;20426;-81
2022/05/17 13:42:29;;;;;;;4.20;1.93;;;;;;;;;;5077864;28;20431;-80
2022/05/17 13:44:59;;;;;;;1.57;1.47;;;;;;;;;;5083101;28;20433;-80
2022/05/17 13:47:30;;;;;;;3.70;2.00;;;;;;;;;;5078847;28;20446;-81
2022/05/17 13:49:58;;;;;;;3.93;2.10;;;;;;;;;;5081972;28;20434;-81
2022/05/17 13:52:26;;;;;;;3.40;2.10;;;;;;;;;;5081117;28;20418;-82
2022/05/17 13:55:11;;;;;;;4.53;2.40;;;;;;;;;;5069742;28;20452;-83
2022/05/17 13:57:38;;;;;;;6.43;2.33;;;;;;;;;;5068149;28;20430;-82
2022/05/17 14:00:24;;;;;;;3.97;2.10;;;;;;;;;;5073280;28;20430;-85
2022/05/17 14:02:58;;;;;;;2.50;1.63;;;;;;;;;;5072732;28;20976;-82
2022/05/17 14:05:35;;;;;;;4.10;2.50;;;;;;;;;;5070197;28;20443;-82
2022/05/17 14:13:41;;;;;;;4.17;2.27;;;;;;;;;;5079459;28;20457;-80
2022/05/17 14:16:18;;;;;;;1.80;1.67;;;;;;;;;;5069821;28;20470;-81
2022/05/17 14:18:45;;;;;;;2.40;1.73;;;;;;;;;;5085385;28;20476;-82
2022/05/17 14:21:12;;;;;;;2.17;1.97;;;;;;;;;;5071914;28;20782;-82
2022/05/17 14:23:39;;;;;;;2.47;2.27;;;;;;;;;;5080798;28;20967;-80
2022/05/17 14:26:05;;;;;;;2.03;1.70;;;;;;;;;;5082357;28;20456;-78
2022/05/17 14:28:32;;;;;;;7.60;5.60;;;;;;;;;;5074046;28;20502;-78
2022/05/17 14:30:58;;;;;;;2.70;2.50;;;;;;;;;;5072986;28;20456;-85
2022/05/17 14:33:24;;;;;;;4.30;2.40;;;;;;;;;;5076115;28;20439;-84
2022/05/17 14:35:51;;;;;;;2.23;1.63;;;;;;;;;;5076589;28;20530;-81
2022/05/17 14:38:17;;;;;;;3.30;1.90;;;;;;;;;;5067510;28;20469;-82
2022/05/17 14:40:45;;;;;;;5.83;1.80;;;;;;;;;;5082141;28;20526;-82
2022/05/17 14:43:11;;;;;;;3.80;2.67;;;;;;;;;;5081437;28;20497;-80
2022/05/17 14:45:37;;;;;;;2.17;2.07;;;;;;;;;;5070902;28;20458;-81
2022/05/17 14:48:04;;;;;;;2.30;1.90;;;;;;;;;;5070284;28;20435;-86
2022/05/17 14:50:30;;;;;;;6.20;1.87;;;;;;;;;;5070827;28;20413;-81
2022/05/17 14:52:56;;;;;;;3.80;2.00;;;;;;;;;;5067909;28;20530;-82
2022/05/17 14:55:23;;;;;;;2.47;1.97;;;;;;;;;;5067835;28;20531;-80
2022/05/17 14:57:49;;;;;;;2.53;1.80;;;;;;;;;;5069863;28;20411;-80
2022/05/17 15:00:18;;;;;;;4.00;1.90;;;;;;;;;;5080962;28;20454;-80
2022/05/17 15:02:53;;;;;;;3.37;1.80;;;;;;;;;;5083143;28;20491;-79
2022/05/17 15:05:19;;;;;;;2.40;2.20;;;;;;;;;;5069456;28;20453;-81
2022/05/17 15:07:48;;;;;;;2.70;1.93;;;;;;;;;;5081773;28;20411;-80
2022/05/17 15:10:14;;;;;;;5.27;2.00;;;;;;;;;;5080723;28;20486;-79
2022/05/17 15:12:40;;;;;;;3.03;2.33;;;;;;;;;;5070404;28;20433;-79
2022/05/17 15:15:08;;;;;;;2.37;1.73;;;;;;;;;;5071267;28;20432;-79